Oakland, CA (94606)

11:50 PM PDT on August 26, 2016 (GMT -0700)
Lake Merritt | | Change Station

Elev 23 ft 37.80 °N, 122.25 °W | Updated 161 days ago

Cloudy
Cloudy
62 °F
Feels Like 62 °F
N
8
Wind Variable Wind from West
Gusts mph

Today
High -- | Low -- °F
--% Chance of Precip.
Yesterday
High -- | Low -- °F
Precip. -- in
Pressure 29.98 in
Visibility 10.0 miles
Clouds Scattered Clouds 1800 ft
Mostly Cloudy 2400 ft
Dew Point 56 °F
Humidity 82%
Rainfall in
Snow Depth Not available.
6:34 AM 7:46 PM
Waning Crescent, 27% visible
SPECI KOAK 270642Z 26006KT 10SM SCT018 BKN024 17/13 A2998 RMK AO2 T01720133
Pressure 29.98 in
Visibility 10.0 miles
Clouds Scattered Clouds 1800 ft
Mostly Cloudy 2400 ft
Dew Point 56 °F
Humidity 82%
Rainfall in
Snow Depth Not available.
6:34 AM 7:46 PM
Waning Crescent, 27% visible
SPECI KOAK 270642Z 26006KT 10SM SCT018 BKN024 17/13 A2998 RMK AO2 T01720133

10-Day Weather Forecast

Almanac

Astronomy

Aug. 26, 2016 Rise Set
Actual Time
Civil Twilight
Nautical Twilight
Astronomical Twilight
Moon
Length of Visible Light
Length of Day
Tomorrow will be .
, % of the Moon is Illuminated

Today's Extremes

State Highs State Lows

Community

WunderPhotos

Upload Photos

1,935,303 photos uploaded!

WunderBlog® & News

Nearby

Air Quality

  Air Quality AQ Index Pollutant
Not available.

Snow Depth

Station Depth Elevation

Earthquake Activity

City Distance Mag. Time & Date
Minimum magnitude displayed is 2.5.

Coastal Water Temperatures

Place Temperature

Stations

Nearby Weather Stations

Station Location Temp. Windchill Dew Point Humidity Wind Precip. Elev Updated Type
                   

Watches & Warnings

There are currently no watches in effect.